sensor_id;sensor_type;location;lat;lon;timestamp;temperature;humidity
80250;DHT22;69561;37.974;23.708;2023-05-10T00:01:05;23.90;42.60
80250;DHT22;69561;37.974;23.708;2023-05-10T00:03:31;23.90;42.60
80250;DHT22;69561;37.974;23.708;2023-05-10T00:05:57;23.90;42.60
80250;DHT22;69561;37.974;23.708;2023-05-10T00:08:22;23.90;42.60
80250;DHT22;69561;37.974;23.708;2023-05-10T00:10:48;23.90;42.60
80250;DHT22;69561;37.974;23.708;2023-05-10T00:13:14;23.90;42.60
80250;DHT22;69561;37.974;23.708;2023-05-10T00:15:40;23.90;42.70
80250;DHT22;69561;37.974;23.708;2023-05-10T00:18:06;23.90;42.70
80250;DHT22;69561;37.974;23.708;2023-05-10T00:20:32;23.90;42.70
80250;DHT22;69561;37.974;23.708;2023-05-10T00:22:57;23.90;42.70
80250;DHT22;69561;37.974;23.708;2023-05-10T00:25:23;23.90;42.70
80250;DHT22;69561;37.974;23.708;2023-05-10T00:27:49;23.90;42.70
80250;DHT22;69561;37.974;23.708;2023-05-10T00:30:15;23.90;42.70
80250;DHT22;69561;37.974;23.708;2023-05-10T00:32:41;23.90;42.70
80250;DHT22;69561;37.974;23.708;2023-05-10T00:35:07;23.90;42.70
80250;DHT22;69561;37.974;23.708;2023-05-10T00:37:33;23.90;42.80
80250;DHT22;69561;37.974;23.708;2023-05-10T00:39:59;23.90;42.80
80250;DHT22;69561;37.974;23.708;2023-05-10T00:42:24;23.90;42.80
80250;DHT22;69561;37.974;23.708;2023-05-10T00:44:50;23.90;42.80
80250;DHT22;69561;37.974;23.708;2023-05-10T00:47:16;23.90;42.80
80250;DHT22;69561;37.974;23.708;2023-05-10T00:49:43;23.90;42.80
80250;DHT22;69561;37.974;23.708;2023-05-10T00:52:09;23.90;42.80
80250;DHT22;69561;37.974;23.708;2023-05-10T00:54:35;23.90;42.80
80250;DHT22;69561;37.974;23.708;2023-05-10T00:57:01;23.90;42.80
80250;DHT22;69561;37.974;23.708;2023-05-10T00:59:27;23.90;42.80
80250;DHT22;69561;37.974;23.708;2023-05-10T01:01:54;23.90;42.80
80250;DHT22;69561;37.974;23.708;2023-05-10T01:04:19;23.90;42.80
80250;DHT22;69561;37.974;23.708;2023-05-10T01:06:53;23.90;42.70
80250;DHT22;69561;37.974;23.708;2023-05-10T01:09:20;23.90;42.70
80250;DHT22;69561;37.974;23.708;2023-05-10T01:11:47;23.90;42.70
80250;DHT22;69561;37.974;23.708;2023-05-10T01:14:15;23.90;42.60
80250;DHT22;69561;37.974;23.708;2023-05-10T01:16:44;23.90;42.70
80250;DHT22;69561;37.974;23.708;2023-05-10T01:19:23;23.90;42.60
80250;DHT22;69561;37.974;23.708;2023-05-10T01:32:29;23.90;42.50
80250;DHT22;69561;37.974;23.708;2023-05-10T01:38:13;23.90;42.50
80250;DHT22;69561;37.974;23.708;2023-05-10T01:41:07;23.80;42.50
80250;DHT22;69561;37.974;23.708;2023-05-10T01:43:57;23.80;42.40
80250;DHT22;69561;37.974;23.708;2023-05-10T01:46:37;23.80;42.40
80250;DHT22;69561;37.974;23.708;2023-05-10T01:49:09;23.80;42.30
80250;DHT22;69561;37.974;23.708;2023-05-10T01:51:44;23.90;42.40
80250;DHT22;69561;37.974;23.708;2023-05-10T01:54:13;23.80;42.30
80250;DHT22;69561;37.974;23.708;2023-05-10T01:56:41;23.90;42.30
80250;DHT22;69561;37.974;23.708;2023-05-10T01:59:13;23.80;42.20
80250;DHT22;69561;37.974;23.708;2023-05-10T02:01:41;23.90;42.30
80250;DHT22;69561;37.974;23.708;2023-05-10T02:04:09;23.80;42.20
80250;DHT22;69561;37.974;23.708;2023-05-10T02:06:35;23.90;42.30
80250;DHT22;69561;37.974;23.708;2023-05-10T02:09:03;23.80;42.10
80250;DHT22;69561;37.974;23.708;2023-05-10T02:11:30;23.90;42.20
80250;DHT22;69561;37.974;23.708;2023-05-10T02:13:56;23.90;42.20
80250;DHT22;69561;37.974;23.708;2023-05-10T02:16:24;23.90;42.10
80250;DHT22;69561;37.974;23.708;2023-05-10T02:18:53;23.90;42.10
80250;DHT22;69561;37.974;23.708;2023-05-10T02:21:20;23.90;42.10
80250;DHT22;69561;37.974;23.708;2023-05-10T02:23:48;23.80;42.10
80250;DHT22;69561;37.974;23.708;2023-05-10T02:26:16;23.80;42.00
80250;DHT22;69561;37.974;23.708;2023-05-10T02:28:43;23.80;42.00
80250;DHT22;69561;37.974;23.708;2023-05-10T02:31:10;23.90;42.00
80250;DHT22;69561;37.974;23.708;2023-05-10T02:33:38;23.90;42.00
80250;DHT22;69561;37.974;23.708;2023-05-10T02:36:07;23.90;42.10
80250;DHT22;69561;37.974;23.708;2023-05-10T02:38:33;23.90;42.00
80250;DHT22;69561;37.974;23.708;2023-05-10T02:41:00;23.80;42.00
80250;DHT22;69561;37.974;23.708;2023-05-10T02:43:28;23.80;42.00
80250;DHT22;69561;37.974;23.708;2023-05-10T02:45:55;23.90;42.10
80250;DHT22;69561;37.974;23.708;2023-05-10T02:48:21;23.80;41.90
80250;DHT22;69561;37.974;23.708;2023-05-10T02:50:47;23.80;42.00
80250;DHT22;69561;37.974;23.708;2023-05-10T02:53:20;23.80;42.00
80250;DHT22;69561;37.974;23.708;2023-05-10T02:55:50;23.80;42.00
80250;DHT22;69561;37.974;23.708;2023-05-10T02:58:17;23.80;42.00
80250;DHT22;69561;37.974;23.708;2023-05-10T03:00:45;23.80;42.00
80250;DHT22;69561;37.974;23.708;2023-05-10T03:03:11;23.80;42.00
80250;DHT22;69561;37.974;23.708;2023-05-10T03:05:37;23.80;41.90
80250;DHT22;69561;37.974;23.708;2023-05-10T03:08:03;23.80;41.90
80250;DHT22;69561;37.974;23.708;2023-05-10T03:10:31;23.80;41.90
80250;DHT22;69561;37.974;23.708;2023-05-10T03:13:14;23.80;41.90
80250;DHT22;69561;37.974;23.708;2023-05-10T03:16:08;23.80;41.90
80250;DHT22;69561;37.974;23.708;2023-05-10T03:18:42;23.80;41.90
80250;DHT22;69561;37.974;23.708;2023-05-10T03:21:11;23.80;41.90
80250;DHT22;69561;37.974;23.708;2023-05-10T03:23:41;23.80;41.80
80250;DHT22;69561;37.974;23.708;2023-05-10T03:26:08;23.80;41.90
80250;DHT22;69561;37.974;23.708;2023-05-10T03:28:35;23.80;41.80
80250;DHT22;69561;37.974;23.708;2023-05-10T03:31:04;23.80;41.80
80250;DHT22;69561;37.974;23.708;2023-05-10T03:33:30;23.80;41.70
80250;DHT22;69561;37.974;23.708;2023-05-10T03:35:57;23.80;41.70
80250;DHT22;69561;37.974;23.708;2023-05-10T03:38:22;23.80;41.70
80250;DHT22;69561;37.974;23.708;2023-05-10T03:40:48;23.80;41.70
80250;DHT22;69561;37.974;23.708;2023-05-10T03:43:14;23.80;41.70
80250;DHT22;69561;37.974;23.708;2023-05-10T03:45:40;23.80;41.60
80250;DHT22;69561;37.974;23.708;2023-05-10T03:48:05;23.80;41.60
80250;DHT22;69561;37.974;23.708;2023-05-10T03:50:31;23.80;41.60
80250;DHT22;69561;37.974;23.708;2023-05-10T03:52:57;23.80;41.60
80250;DHT22;69561;37.974;23.708;2023-05-10T03:55:23;23.80;41.50
80250;DHT22;69561;37.974;23.708;2023-05-10T03:57:49;23.80;41.60
80250;DHT22;69561;37.974;23.708;2023-05-10T04:00:15;23.80;41.50
80250;DHT22;69561;37.974;23.708;2023-05-10T04:02:41;23.80;41.50
80250;DHT22;69561;37.974;23.708;2023-05-10T04:05:07;23.80;41.50
80250;DHT22;69561;37.974;23.708;2023-05-10T04:07:33;23.80;41.50
80250;DHT22;69561;37.974;23.708;2023-05-10T04:09:59;23.80;41.40
80250;DHT22;69561;37.974;23.708;2023-05-10T04:12:24;23.80;41.40
80250;DHT22;69561;37.974;23.708;2023-05-10T04:14:50;23.80;41.40
80250;DHT22;69561;37.974;23.708;2023-05-10T04:17:16;23.80;41.40
80250;DHT22;69561;37.974;23.708;2023-05-10T04:19:42;23.80;41.50
80250;DHT22;69561;37.974;23.708;2023-05-10T04:22:07;23.80;41.90
80250;DHT22;69561;37.974;23.708;2023-05-10T04:24:33;23.80;42.10
80250;DHT22;69561;37.974;23.708;2023-05-10T04:26:59;23.80;42.10
80250;DHT22;69561;37.974;23.708;2023-05-10T04:29:26;23.80;42.10
80250;DHT22;69561;37.974;23.708;2023-05-10T04:31:52;23.80;42.10
80250;DHT22;69561;37.974;23.708;2023-05-10T04:34:20;23.80;42.00
80250;DHT22;69561;37.974;23.708;2023-05-10T04:36:46;23.80;42.00
80250;DHT22;69561;37.974;23.708;2023-05-10T04:39:12;23.80;41.90
80250;DHT22;69561;37.974;23.708;2023-05-10T04:41:39;23.80;41.90
80250;DHT22;69561;37.974;23.708;2023-05-10T04:44:04;23.80;41.80
80250;DHT22;69561;37.974;23.708;2023-05-10T04:46:30;23.80;41.80
80250;DHT22;69561;37.974;23.708;2023-05-10T04:48:56;23.80;41.70
80250;DHT22;69561;37.974;23.708;2023-05-10T04:51:22;23.80;41.80
80250;DHT22;69561;37.974;23.708;2023-05-10T04:53:47;23.80;41.70
80250;DHT22;69561;37.974;23.708;2023-05-10T04:56:13;23.80;41.70
80250;DHT22;69561;37.974;23.708;2023-05-10T04:58:39;23.80;41.60
80250;DHT22;69561;37.974;23.708;2023-05-10T05:01:08;23.80;41.50
80250;DHT22;69561;37.974;23.708;2023-05-10T05:03:35;23.80;41.50
80250;DHT22;69561;37.974;23.708;2023-05-10T05:06:00;23.80;41.50
80250;DHT22;69561;37.974;23.708;2023-05-10T05:08:26;23.90;41.50
80250;DHT22;69561;37.974;23.708;2023-05-10T05:10:52;23.90;41.50
80250;DHT22;69561;37.974;23.708;2023-05-10T05:13:18;23.90;41.50
80250;DHT22;69561;37.974;23.708;2023-05-10T05:15:44;23.90;41.40
80250;DHT22;69561;37.974;23.708;2023-05-10T05:18:10;24.00;41.30
80250;DHT22;69561;37.974;23.708;2023-05-10T05:20:35;24.00;41.30
80250;DHT22;69561;37.974;23.708;2023-05-10T05:23:01;24.00;41.10
80250;DHT22;69561;37.974;23.708;2023-05-10T05:25:27;24.10;41.10
80250;DHT22;69561;37.974;23.708;2023-05-10T05:27:53;24.10;41.10
80250;DHT22;69561;37.974;23.708;2023-05-10T05:30:18;24.10;41.10
80250;DHT22;69561;37.974;23.708;2023-05-10T05:32:44;24.10;41.00
80250;DHT22;69561;37.974;23.708;2023-05-10T05:35:10;24.10;41.00
80250;DHT22;69561;37.974;23.708;2023-05-10T05:37:36;24.20;41.00
80250;DHT22;69561;37.974;23.708;2023-05-10T05:40:02;24.10;40.90
80250;DHT22;69561;37.974;23.708;2023-05-10T05:42:28;24.10;41.00
80250;DHT22;69561;37.974;23.708;2023-05-10T05:44:54;24.10;41.00
80250;DHT22;69561;37.974;23.708;2023-05-10T05:47:20;24.10;41.00
80250;DHT22;69561;37.974;23.708;2023-05-10T05:49:46;24.10;41.00
80250;DHT22;69561;37.974;23.708;2023-05-10T05:52:11;24.10;40.90
80250;DHT22;69561;37.974;23.708;2023-05-10T05:54:37;24.10;41.00
80250;DHT22;69561;37.974;23.708;2023-05-10T05:57:03;24.10;41.00
80250;DHT22;69561;37.974;23.708;2023-05-10T05:59:29;24.20;41.00
80250;DHT22;69561;37.974;23.708;2023-05-10T06:01:54;24.20;40.90
80250;DHT22;69561;37.974;23.708;2023-05-10T06:04:20;24.20;40.90
80250;DHT22;69561;37.974;23.708;2023-05-10T06:06:46;24.10;40.80
80250;DHT22;69561;37.974;23.708;2023-05-10T06:09:12;24.20;40.80
80250;DHT22;69561;37.974;23.708;2023-05-10T06:11:38;24.20;40.80
80250;DHT22;69561;37.974;23.708;2023-05-10T06:14:04;24.20;40.70
80250;DHT22;69561;37.974;23.708;2023-05-10T06:16:32;24.20;40.70
80250;DHT22;69561;37.974;23.708;2023-05-10T06:18:58;24.20;40.60
80250;DHT22;69561;37.974;23.708;2023-05-10T06:21:24;24.20;40.60
80250;DHT22;69561;37.974;23.708;2023-05-10T06:23:50;24.30;40.50
80250;DHT22;69561;37.974;23.708;2023-05-10T06:26:15;24.30;40.40
80250;DHT22;69561;37.974;23.708;2023-05-10T06:28:41;24.30;40.40
80250;DHT22;69561;37.974;23.708;2023-05-10T06:31:07;24.30;40.40
80250;DHT22;69561;37.974;23.708;2023-05-10T06:33:33;24.40;40.50
80250;DHT22;69561;37.974;23.708;2023-05-10T06:35:59;24.30;40.40
80250;DHT22;69561;37.974;23.708;2023-05-10T06:38:25;24.30;40.40
80250;DHT22;69561;37.974;23.708;2023-05-10T06:40:51;24.40;40.30
80250;DHT22;69561;37.974;23.708;2023-05-10T06:43:17;24.30;40.20
80250;DHT22;69561;37.974;23.708;2023-05-10T06:45:44;24.40;40.20
80250;DHT22;69561;37.974;23.708;2023-05-10T06:48:09;24.40;40.20
80250;DHT22;69561;37.974;23.708;2023-05-10T06:50:35;24.40;40.10
80250;DHT22;69561;37.974;23.708;2023-05-10T06:53:01;24.40;40.20
80250;DHT22;69561;37.974;23.708;2023-05-10T06:55:27;24.40;40.10
80250;DHT22;69561;37.974;23.708;2023-05-10T06:57:53;24.40;40.10
80250;DHT22;69561;37.974;23.708;2023-05-10T07:00:19;24.40;40.00
80250;DHT22;69561;37.974;23.708;2023-05-10T07:02:45;24.40;40.20
80250;DHT22;69561;37.974;23.708;2023-05-10T07:05:11;24.40;40.00
80250;DHT22;69561;37.974;23.708;2023-05-10T07:07:37;24.40;40.00
80250;DHT22;69561;37.974;23.708;2023-05-10T07:10:04;24.40;40.10
80250;DHT22;69561;37.974;23.708;2023-05-10T07:12:29;24.50;40.00
80250;DHT22;69561;37.974;23.708;2023-05-10T07:14:55;24.50;40.00
80250;DHT22;69561;37.974;23.708;2023-05-10T07:17:21;24.50;40.00
80250;DHT22;69561;37.974;23.708;2023-05-10T07:19:47;24.50;40.00
80250;DHT22;69561;37.974;23.708;2023-05-10T07:22:12;24.50;40.00
80250;DHT22;69561;37.974;23.708;2023-05-10T07:24:38;24.50;40.00
80250;DHT22;69561;37.974;23.708;2023-05-10T07:27:04;24.50;40.00
80250;DHT22;69561;37.974;23.708;2023-05-10T07:29:30;24.50;39.90
80250;DHT22;69561;37.974;23.708;2023-05-10T07:31:55;24.50;39.90
80250;DHT22;69561;37.974;23.708;2023-05-10T07:34:21;24.50;39.90
80250;DHT22;69561;37.974;23.708;2023-05-10T07:36:47;24.50;39.90
80250;DHT22;69561;37.974;23.708;2023-05-10T07:39:13;24.50;39.90
80250;DHT22;69561;37.974;23.708;2023-05-10T07:41:39;24.50;40.80
80250;DHT22;69561;37.974;23.708;2023-05-10T07:44:05;24.50;39.80
80250;DHT22;69561;37.974;23.708;2023-05-10T07:46:31;24.50;39.90
80250;DHT22;69561;37.974;23.708;2023-05-10T07:48:57;24.50;39.90
80250;DHT22;69561;37.974;23.708;2023-05-10T07:51:23;24.50;39.90
80250;DHT22;69561;37.974;23.708;2023-05-10T07:53:49;24.50;39.80
80250;DHT22;69561;37.974;23.708;2023-05-10T07:56:29;24.50;39.90
80250;DHT22;69561;37.974;23.708;2023-05-10T07:58:56;24.50;39.90
80250;DHT22;69561;37.974;23.708;2023-05-10T08:01:22;24.50;39.90
80250;DHT22;69561;37.974;23.708;2023-05-10T08:03:48;24.50;40.00
80250;DHT22;69561;37.974;23.708;2023-05-10T08:06:17;24.50;40.00
80250;DHT22;69561;37.974;23.708;2023-05-10T08:08:43;24.40;39.90
80250;DHT22;69561;37.974;23.708;2023-05-10T08:11:17;24.40;39.90
80250;DHT22;69561;37.974;23.708;2023-05-10T08:13:44;24.50;40.00
80250;DHT22;69561;37.974;23.708;2023-05-10T08:16:10;24.50;40.00
80250;DHT22;69561;37.974;23.708;2023-05-10T08:18:36;24.40;39.90
80250;DHT22;69561;37.974;23.708;2023-05-10T08:21:02;24.50;39.90
80250;DHT22;69561;37.974;23.708;2023-05-10T08:23:27;24.50;39.80
80250;DHT22;69561;37.974;23.708;2023-05-10T08:25:53;24.50;39.80
80250;DHT22;69561;37.974;23.708;2023-05-10T08:28:19;24.50;39.80
80250;DHT22;69561;37.974;23.708;2023-05-10T08:30:45;24.50;39.80
80250;DHT22;69561;37.974;23.708;2023-05-10T08:33:11;24.40;39.70
80250;DHT22;69561;37.974;23.708;2023-05-10T08:35:37;24.50;39.70
80250;DHT22;69561;37.974;23.708;2023-05-10T08:38:03;24.50;39.60
80250;DHT22;69561;37.974;23.708;2023-05-10T08:40:29;24.50;39.60
80250;DHT22;69561;37.974;23.708;2023-05-10T08:42:59;24.50;39.60
80250;DHT22;69561;37.974;23.708;2023-05-10T08:45:33;24.50;39.60
80250;DHT22;69561;37.974;23.708;2023-05-10T08:48:02;24.40;39.40
80250;DHT22;69561;37.974;23.708;2023-05-10T08:50:31;24.40;39.50
80250;DHT22;69561;37.974;23.708;2023-05-10T08:53:00;24.40;39.40
80250;DHT22;69561;37.974;23.708;2023-05-10T08:55:27;24.40;39.40
80250;DHT22;69561;37.974;23.708;2023-05-10T08:57:55;24.50;39.50
80250;DHT22;69561;37.974;23.708;2023-05-10T09:00:21;24.50;39.50
80250;DHT22;69561;37.974;23.708;2023-05-10T09:02:49;24.50;39.50
80250;DHT22;69561;37.974;23.708;2023-05-10T09:05:15;24.50;39.60
80250;DHT22;69561;37.974;23.708;2023-05-10T09:07:43;24.50;39.50
80250;DHT22;69561;37.974;23.708;2023-05-10T09:10:09;24.50;39.50
80250;DHT22;69561;37.974;23.708;2023-05-10T09:12:40;24.50;39.50
80250;DHT22;69561;37.974;23.708;2023-05-10T09:15:07;24.50;39.50
80250;DHT22;69561;37.974;23.708;2023-05-10T09:17:34;24.50;39.40
80250;DHT22;69561;37.974;23.708;2023-05-10T09:20:02;24.50;39.40
80250;DHT22;69561;37.974;23.708;2023-05-10T09:22:28;24.50;39.40
80250;DHT22;69561;37.974;23.708;2023-05-10T09:25:08;24.50;39.40
80250;DHT22;69561;37.974;23.708;2023-05-10T09:27:35;24.40;39.40
80250;DHT22;69561;37.974;23.708;2023-05-10T09:30:02;24.40;39.40
80250;DHT22;69561;37.974;23.708;2023-05-10T09:35:14;24.40;40.40
80250;DHT22;69561;37.974;23.708;2023-05-10T09:37:42;24.40;39.40
80250;DHT22;69561;37.974;23.708;2023-05-10T09:40:11;24.50;39.40
80250;DHT22;69561;37.974;23.708;2023-05-10T09:42:38;24.50;39.30
80250;DHT22;69561;37.974;23.708;2023-05-10T09:45:04;24.40;39.30
80250;DHT22;69561;37.974;23.708;2023-05-10T09:47:36;24.50;39.30
80250;DHT22;69561;37.974;23.708;2023-05-10T09:50:03;24.50;39.20
80250;DHT22;69561;37.974;23.708;2023-05-10T09:55:18;24.50;39.20
80250;DHT22;69561;37.974;23.708;2023-05-10T09:57:46;24.50;39.20
80250;DHT22;69561;37.974;23.708;2023-05-10T10:00:17;24.50;39.20
80250;DHT22;69561;37.974;23.708;2023-05-10T10:02:44;24.50;39.10
80250;DHT22;69561;37.974;23.708;2023-05-10T10:05:11;24.50;39.10
80250;DHT22;69561;37.974;23.708;2023-05-10T10:07:37;24.50;39.30
80250;DHT22;69561;37.974;23.708;2023-05-10T10:10:03;24.40;39.10
80250;DHT22;69561;37.974;23.708;2023-05-10T10:12:30;24.50;39.20
80250;DHT22;69561;37.974;23.708;2023-05-10T10:14:57;24.50;39.20
80250;DHT22;69561;37.974;23.708;2023-05-10T10:17:25;24.50;39.10
80250;DHT22;69561;37.974;23.708;2023-05-10T10:19:53;24.50;39.10
80250;DHT22;69561;37.974;23.708;2023-05-10T10:22:20;24.50;39.10
80250;DHT22;69561;37.974;23.708;2023-05-10T10:24:46;24.50;39.10
80250;DHT22;69561;37.974;23.708;2023-05-10T10:27:28;24.50;39.10
80250;DHT22;69561;37.974;23.708;2023-05-10T10:33:39;24.50;39.10
80250;DHT22;69561;37.974;23.708;2023-05-10T10:35:44;24.50;39.10
80250;DHT22;69561;37.974;23.708;2023-05-10T10:38:12;24.50;39.10
80250;DHT22;69561;37.974;23.708;2023-05-10T10:40:38;24.50;39.20
80250;DHT22;69561;37.974;23.708;2023-05-10T10:43:27;24.50;39.10
80250;DHT22;69561;37.974;23.708;2023-05-10T10:48:38;24.50;39.10
80250;DHT22;69561;37.974;23.708;2023-05-10T10:51:04;24.50;39.10
80250;DHT22;69561;37.974;23.708;2023-05-10T10:53:29;24.50;39.10
80250;DHT22;69561;37.974;23.708;2023-05-10T10:56:10;24.50;39.20
80250;DHT22;69561;37.974;23.708;2023-05-10T10:58:38;24.50;39.10
80250;DHT22;69561;37.974;23.708;2023-05-10T11:01:18;24.50;39.30
80250;DHT22;69561;37.974;23.708;2023-05-10T11:06:29;24.50;39.30
80250;DHT22;69561;37.974;23.708;2023-05-10T11:08:57;24.50;39.40
80250;DHT22;69561;37.974;23.708;2023-05-10T11:11:23;24.50;39.30
80250;DHT22;69561;37.974;23.708;2023-05-10T11:13:49;24.50;39.40
80250;DHT22;69561;37.974;23.708;2023-05-10T11:16:20;24.50;39.40
80250;DHT22;69561;37.974;23.708;2023-05-10T11:18:57;24.50;39.50
80250;DHT22;69561;37.974;23.708;2023-05-10T11:21:24;24.50;39.50
80250;DHT22;69561;37.974;23.708;2023-05-10T11:23:54;24.40;39.50
80250;DHT22;69561;37.974;23.708;2023-05-10T11:26:23;24.50;39.60
80250;DHT22;69561;37.974;23.708;2023-05-10T11:28:52;24.40;39.70
80250;DHT22;69561;37.974;23.708;2023-05-10T11:31:19;24.40;39.70
80250;DHT22;69561;37.974;23.708;2023-05-10T11:33:46;24.40;39.70
80250;DHT22;69561;37.974;23.708;2023-05-10T11:36:25;24.40;39.70
80250;DHT22;69561;37.974;23.708;2023-05-10T11:38:51;24.50;39.80
80250;DHT22;69561;37.974;23.708;2023-05-10T11:41:18;24.50;39.80
80250;DHT22;69561;37.974;23.708;2023-05-10T11:44:02;24.50;39.80
80250;DHT22;69561;37.974;23.708;2023-05-10T11:46:28;24.50;40.00
80250;DHT22;69561;37.974;23.708;2023-05-10T11:48:58;24.50;40.00
80250;DHT22;69561;37.974;23.708;2023-05-10T11:51:26;24.50;40.00
80250;DHT22;69561;37.974;23.708;2023-05-10T11:53:54;24.50;40.20
80250;DHT22;69561;37.974;23.708;2023-05-10T11:56:20;24.50;40.10
80250;DHT22;69561;37.974;23.708;2023-05-10T11:58:58;24.50;40.10
80250;DHT22;69561;37.974;23.708;2023-05-10T12:01:25;24.50;40.30
80250;DHT22;69561;37.974;23.708;2023-05-10T12:03:53;24.50;40.40
80250;DHT22;69561;37.974;23.708;2023-05-10T12:06:19;24.40;40.30
80250;DHT22;69561;37.974;23.708;2023-05-10T12:08:47;24.50;41.30
80250;DHT22;69561;37.974;23.708;2023-05-10T12:11:14;24.50;40.40
80250;DHT22;69561;37.974;23.708;2023-05-10T12:13:43;24.50;40.40
80250;DHT22;69561;37.974;23.708;2023-05-10T12:16:29;24.50;40.50
80250;DHT22;69561;37.974;23.708;2023-05-10T12:19:00;24.40;40.60
80250;DHT22;69561;37.974;23.708;2023-05-10T12:21:27;24.50;40.50
80250;DHT22;69561;37.974;23.708;2023-05-10T12:23:54;24.40;40.50
80250;DHT22;69561;37.974;23.708;2023-05-10T12:26:28;24.40;40.50
80250;DHT22;69561;37.974;23.708;2023-05-10T12:28:54;24.40;40.50
80250;DHT22;69561;37.974;23.708;2023-05-10T12:31:20;24.50;40.50
80250;DHT22;69561;37.974;23.708;2023-05-10T12:33:46;24.50;40.50
80250;DHT22;69561;37.974;23.708;2023-05-10T12:36:15;24.40;40.50
80250;DHT22;69561;37.974;23.708;2023-05-10T12:38:42;24.50;40.60
80250;DHT22;69561;37.974;23.708;2023-05-10T12:41:17;24.50;40.50
80250;DHT22;69561;37.974;23.708;2023-05-10T12:43:43;24.50;40.50
80250;DHT22;69561;37.974;23.708;2023-05-10T12:46:10;24.50;40.50
80250;DHT22;69561;37.974;23.708;2023-05-10T12:48:37;24.50;40.50
80250;DHT22;69561;37.974;23.708;2023-05-10T12:51:04;24.50;40.50
80250;DHT22;69561;37.974;23.708;2023-05-10T12:53:31;24.50;40.50
80250;DHT22;69561;37.974;23.708;2023-05-10T12:55:57;24.50;40.50
80250;DHT22;69561;37.974;23.708;2023-05-10T12:58:23;24.50;40.50
80250;DHT22;69561;37.974;23.708;2023-05-10T13:00:48;24.50;40.50
80250;DHT22;69561;37.974;23.708;2023-05-10T13:03:14;24.50;40.60
80250;DHT22;69561;37.974;23.708;2023-05-10T13:05:41;24.40;40.60
80250;DHT22;69561;37.974;23.708;2023-05-10T13:08:06;24.40;40.70
80250;DHT22;69561;37.974;23.708;2023-05-10T13:10:32;24.40;40.70
80250;DHT22;69561;37.974;23.708;2023-05-10T13:12:58;24.40;40.70
80250;DHT22;69561;37.974;23.708;2023-05-10T13:15:25;24.40;40.80
80250;DHT22;69561;37.974;23.708;2023-05-10T13:17:51;24.40;40.80
80250;DHT22;69561;37.974;23.708;2023-05-10T13:20:17;24.40;41.00
80250;DHT22;69561;37.974;23.708;2023-05-10T13:22:43;24.30;40.90
80250;DHT22;69561;37.974;23.708;2023-05-10T13:25:10;24.40;41.00
80250;DHT22;69561;37.974;23.708;2023-05-10T13:27:36;24.40;40.90
80250;DHT22;69561;37.974;23.708;2023-05-10T13:30:03;24.40;40.90
80250;DHT22;69561;37.974;23.708;2023-05-10T13:32:29;24.40;41.00
80250;DHT22;69561;37.974;23.708;2023-05-10T13:34:55;24.40;41.00
80250;DHT22;69561;37.974;23.708;2023-05-10T13:37:21;24.30;41.00
80250;DHT22;69561;37.974;23.708;2023-05-10T13:39:47;24.40;41.00
80250;DHT22;69561;37.974;23.708;2023-05-10T13:42:13;24.40;41.10
80250;DHT22;69561;37.974;23.708;2023-05-10T13:44:39;24.40;41.10
80250;DHT22;69561;37.974;23.708;2023-05-10T13:47:05;24.30;41.10
80250;DHT22;69561;37.974;23.708;2023-05-10T13:49:32;24.30;41.10
80250;DHT22;69561;37.974;23.708;2023-05-10T13:51:59;24.30;41.20
80250;DHT22;69561;37.974;23.708;2023-05-10T13:54:31;24.30;41.10
80250;DHT22;69561;37.974;23.708;2023-05-10T13:56:57;24.40;41.20
80250;DHT22;69561;37.974;23.708;2023-05-10T13:59:23;24.40;41.30
80250;DHT22;69561;37.974;23.708;2023-05-10T14:01:48;24.30;41.30
80250;DHT22;69561;37.974;23.708;2023-05-10T14:04:14;24.30;41.20
80250;DHT22;69561;37.974;23.708;2023-05-10T14:06:40;24.30;41.20
80250;DHT22;69561;37.974;23.708;2023-05-10T14:09:05;24.30;41.30
80250;DHT22;69561;37.974;23.708;2023-05-10T14:11:31;24.30;41.30
80250;DHT22;69561;37.974;23.708;2023-05-10T14:13:57;24.30;41.40
80250;DHT22;69561;37.974;23.708;2023-05-10T14:16:23;24.30;41.30
80250;DHT22;69561;37.974;23.708;2023-05-10T14:18:49;24.40;41.30
80250;DHT22;69561;37.974;23.708;2023-05-10T14:21:15;24.40;41.30
80250;DHT22;69561;37.974;23.708;2023-05-10T14:23:40;24.40;41.30
80250;DHT22;69561;37.974;23.708;2023-05-10T14:26:06;24.40;42.20
80250;DHT22;69561;37.974;23.708;2023-05-10T14:28:32;24.40;41.20
80250;DHT22;69561;37.974;23.708;2023-05-10T14:30:58;24.40;41.30
80250;DHT22;69561;37.974;23.708;2023-05-10T14:33:24;24.40;41.30
80250;DHT22;69561;37.974;23.708;2023-05-10T14:35:50;24.40;41.40
80250;DHT22;69561;37.974;23.708;2023-05-10T14:38:16;24.30;41.30
80250;DHT22;69561;37.974;23.708;2023-05-10T14:40:42;24.30;41.40
80250;DHT22;69561;37.974;23.708;2023-05-10T14:43:08;24.30;41.30
80250;DHT22;69561;37.974;23.708;2023-05-10T14:45:34;24.30;41.40
80250;DHT22;69561;37.974;23.708;2023-05-10T14:48:00;24.30;41.50
80250;DHT22;69561;37.974;23.708;2023-05-10T14:50:26;24.30;41.40
80250;DHT22;69561;37.974;23.708;2023-05-10T14:52:52;24.30;41.40
80250;DHT22;69561;37.974;23.708;2023-05-10T14:55:17;24.30;41.40
80250;DHT22;69561;37.974;23.708;2023-05-10T14:57:43;24.30;42.40
80250;DHT22;69561;37.974;23.708;2023-05-10T15:00:10;24.30;41.40
80250;DHT22;69561;37.974;23.708;2023-05-10T15:02:35;24.30;41.50
80250;DHT22;69561;37.974;23.708;2023-05-10T15:05:02;24.30;41.50
80250;DHT22;69561;37.974;23.708;2023-05-10T15:07:27;24.30;42.40
80250;DHT22;69561;37.974;23.708;2023-05-10T15:09:53;24.30;41.50
80250;DHT22;69561;37.974;23.708;2023-05-10T15:12:19;24.30;41.50
80250;DHT22;69561;37.974;23.708;2023-05-10T15:14:45;24.30;41.60
80250;DHT22;69561;37.974;23.708;2023-05-10T15:17:11;24.30;41.60
80250;DHT22;69561;37.974;23.708;2023-05-10T15:19:37;24.30;41.50
80250;DHT22;69561;37.974;23.708;2023-05-10T15:22:04;24.30;41.40
80250;DHT22;69561;37.974;23.708;2023-05-10T15:24:30;24.30;41.40
80250;DHT22;69561;37.974;23.708;2023-05-10T15:26:56;24.30;41.50
80250;DHT22;69561;37.974;23.708;2023-05-10T15:29:22;24.30;41.50
80250;DHT22;69561;37.974;23.708;2023-05-10T15:31:49;24.30;41.50
80250;DHT22;69561;37.974;23.708;2023-05-10T15:34:15;24.30;42.50
80250;DHT22;69561;37.974;23.708;2023-05-10T15:36:42;24.30;41.60
80250;DHT22;69561;37.974;23.708;2023-05-10T15:39:07;24.20;41.50
80250;DHT22;69561;37.974;23.708;2023-05-10T15:41:35;24.30;41.60
80250;DHT22;69561;37.974;23.708;2023-05-10T15:44:01;24.20;41.50